createdAt,value
2022-08-02T00:01:22.688Z,22.32
2022-08-02T00:03:50.622Z,22.31
2022-08-02T00:06:18.535Z,22.26
2022-08-02T00:08:46.547Z,22.21
2022-08-02T00:11:14.502Z,22.18
2022-08-02T00:13:42.406Z,22.14
2022-08-02T00:16:10.283Z,22.13
2022-08-02T00:18:45.075Z,22.13
2022-08-02T00:21:13.675Z,22.13
2022-08-02T00:24:04.950Z,22.10
2022-08-02T00:26:30.692Z,22.11
2022-08-02T00:28:58.548Z,22.13
2022-08-02T00:31:26.448Z,22.13
2022-08-02T00:34:28.313Z,22.12
2022-08-02T00:36:42.274Z,22.12
2022-08-02T00:39:33.587Z,22.13
2022-08-02T00:41:58.094Z,22.13
2022-08-02T00:44:25.990Z,22.14
2022-08-02T00:46:53.794Z,22.12
2022-08-02T00:49:21.618Z,22.09
2022-08-02T00:51:49.499Z,22.11
2022-08-02T00:54:17.362Z,22.12
2022-08-02T00:56:50.038Z,22.13
2022-08-02T00:59:19.246Z,22.13
2022-08-02T01:01:57.385Z,22.13
2022-08-02T01:04:31.340Z,22.13
2022-08-02T01:07:01.663Z,22.12
2022-08-02T01:09:29.612Z,22.10
2022-08-02T01:11:57.748Z,22.09
2022-08-02T01:14:30.728Z,22.08
2022-08-02T01:17:39.678Z,22.07
2022-08-02T01:20:48.064Z,22.06
2022-08-02T01:24:16.214Z,22.04
2022-08-02T01:26:53.413Z,22.00
2022-08-02T01:29:36.110Z,21.93
2022-08-02T01:32:14.171Z,21.88
2022-08-02T01:34:58.816Z,21.85
2022-08-02T01:37:44.818Z,21.81
2022-08-02T01:40:20.611Z,21.81
2022-08-02T01:42:53.314Z,21.83
2022-08-02T01:45:24.312Z,21.84
2022-08-02T01:47:52.939Z,21.85
2022-08-02T01:50:29.571Z,21.86
2022-08-02T01:53:00.511Z,21.86
2022-08-02T01:55:35.063Z,21.87
2022-08-02T01:58:21.141Z,21.85
2022-08-02T02:00:49.881Z,21.85
2022-08-02T02:03:24.758Z,21.86
2022-08-02T02:05:57.550Z,21.86
2022-08-02T02:08:31.773Z,21.85
2022-08-02T02:12:11.760Z,21.85
2022-08-02T02:13:50.326Z,21.85
2022-08-02T02:16:20.444Z,21.86
2022-08-02T02:18:49.262Z,21.86
2022-08-02T02:21:17.089Z,21.84
2022-08-02T02:23:45.133Z,21.80
2022-08-02T02:26:17.550Z,21.77
2022-08-02T02:28:59.727Z,21.74
2022-08-02T02:31:30.449Z,21.70
2022-08-02T02:34:13.436Z,21.67
2022-08-02T02:36:46.952Z,21.65
2022-08-02T02:39:16.109Z,21.62
2022-08-02T02:41:44.753Z,21.59
2022-08-02T02:44:17.632Z,21.56
2022-08-02T02:46:48.501Z,21.52
2022-08-02T02:49:18.271Z,21.49
2022-08-02T02:51:46.306Z,21.47
2022-08-02T02:54:30.158Z,21.44
2022-08-02T02:57:05.226Z,21.40
2022-08-02T02:59:43.096Z,21.38
2022-08-02T03:02:18.994Z,21.36
2022-08-02T03:04:56.944Z,21.34
2022-08-02T03:07:27.096Z,21.30
2022-08-02T03:09:55.429Z,21.26
2022-08-02T03:12:30.825Z,21.23
2022-08-02T03:15:02.342Z,21.19
2022-08-02T03:17:45.656Z,21.17
2022-08-02T03:20:19.416Z,21.14
2022-08-02T03:22:47.768Z,21.12
2022-08-02T03:25:17.574Z,21.10
2022-08-02T03:27:45.792Z,21.08
2022-08-02T03:30:15.301Z,21.06
2022-08-02T03:32:47.789Z,21.04
2022-08-02T03:35:22.924Z,21.02
2022-08-02T03:37:54.505Z,21.00
2022-08-02T03:40:23.339Z,20.99
2022-08-02T03:42:51.701Z,20.97
2022-08-02T03:45:20.299Z,20.94
2022-08-02T03:47:48.319Z,20.92
2022-08-02T03:50:16.667Z,20.91
2022-08-02T03:52:45.720Z,20.90
2022-08-02T03:55:14.067Z,20.89
2022-08-02T03:57:42.990Z,20.87
2022-08-02T04:00:15.626Z,20.84
2022-08-02T04:02:43.610Z,20.83
2022-08-02T04:05:11.570Z,20.83
2022-08-02T04:08:32.703Z,20.80
2022-08-02T04:10:27.361Z,20.82
2022-08-02T04:12:55.942Z,20.86
2022-08-02T04:15:24.654Z,20.90
2022-08-02T04:17:59.478Z,20.90
2022-08-02T04:20:31.696Z,20.87
2022-08-02T04:23:08.298Z,20.85
2022-08-02T04:25:40.295Z,20.87
2022-08-02T04:28:16.947Z,20.90
2022-08-02T04:30:50.090Z,20.90
2022-08-02T04:33:18.400Z,20.90
2022-08-02T04:35:46.261Z,20.91
2022-08-02T04:38:15.812Z,20.92
2022-08-02T04:40:55.550Z,20.93
2022-08-02T04:43:24.214Z,20.94
2022-08-02T04:45:54.774Z,20.95
2022-08-02T04:48:23.631Z,20.98
2022-08-02T04:50:52.209Z,21.05
2022-08-02T04:53:20.120Z,21.13
2022-08-02T04:55:47.953Z,21.19
2022-08-02T04:58:39.393Z,21.23
2022-08-02T05:01:04.181Z,21.25
2022-08-02T05:03:32.163Z,21.26
2022-08-02T05:06:03.741Z,21.28
2022-08-02T05:08:41.091Z,21.30
2022-08-02T05:11:09.125Z,21.33
2022-08-02T05:13:58.522Z,21.36
2022-08-02T05:16:30.695Z,21.38
2022-08-02T05:19:02.010Z,21.40
2022-08-02T05:21:32.026Z,21.41
2022-08-02T05:24:00.145Z,21.42
2022-08-02T05:26:27.949Z,21.47
2022-08-02T05:28:55.814Z,21.48
2022-08-02T05:31:23.966Z,21.51
2022-08-02T05:33:51.823Z,21.61
2022-08-02T05:36:21.698Z,21.74
2022-08-02T05:38:51.230Z,21.79
2022-08-02T05:41:20.608Z,21.87
2022-08-02T05:43:48.510Z,21.99
2022-08-02T05:46:16.561Z,22.09
2022-08-02T05:48:45.759Z,22.20
2022-08-02T05:51:38.217Z,22.31
2022-08-02T05:54:16.715Z,22.44
2022-08-02T05:56:55.809Z,22.57
2022-08-02T05:59:41.118Z,22.73
2022-08-02T06:02:39.531Z,22.90
2022-08-02T06:05:15.991Z,23.11
2022-08-02T06:07:45.585Z,23.29
2022-08-02T06:10:16.890Z,23.48
2022-08-02T06:13:16.528Z,23.69
2022-08-02T06:15:53.436Z,23.93
2022-08-02T06:18:28.524Z,24.12
2022-08-02T06:22:33.202Z,24.28
2022-08-02T06:23:57.743Z,24.32
2022-08-02T06:26:28.593Z,24.37
2022-08-02T06:28:59.483Z,24.47
2022-08-02T06:31:27.626Z,24.58
2022-08-02T06:33:56.335Z,24.76
2022-08-02T06:36:42.950Z,24.94
2022-08-02T06:39:20.451Z,25.07
2022-08-02T06:41:50.318Z,25.15
2022-08-02T06:47:12.362Z,25.47
2022-08-02T06:49:52.541Z,25.66
2022-08-02T06:52:28.709Z,25.80
2022-08-02T06:55:03.964Z,25.88
2022-08-02T06:57:32.990Z,25.91
2022-08-02T07:00:02.686Z,25.95
2022-08-02T07:02:31.892Z,26.01
2022-08-02T07:05:01.437Z,26.09
2022-08-02T07:07:29.531Z,26.19
2022-08-02T07:10:01.221Z,26.29
2022-08-02T07:12:32.218Z,26.37
2022-08-02T07:15:07.370Z,26.45
2022-08-02T07:17:36.111Z,26.56
2022-08-02T07:20:04.755Z,26.66
2022-08-02T07:22:32.839Z,26.77
2022-08-02T07:25:01.928Z,26.85
2022-08-02T07:27:30.259Z,26.94
2022-08-02T07:29:59.031Z,27.04
2022-08-02T07:32:30.298Z,27.11
2022-08-02T07:35:00.061Z,27.20
2022-08-02T07:37:53.239Z,27.32
2022-08-02T07:40:22.399Z,27.46
2022-08-02T07:42:57.888Z,27.55
2022-08-02T07:45:28.288Z,27.63
2022-08-02T07:47:57.063Z,27.71
2022-08-02T07:50:24.998Z,27.81
2022-08-02T07:52:57.217Z,27.92
2022-08-02T07:55:33.382Z,28.02
2022-08-02T07:58:12.883Z,28.14
2022-08-02T08:00:43.941Z,28.32
2022-08-02T08:03:12.295Z,28.47
2022-08-02T08:05:40.881Z,28.63
2022-08-02T08:08:16.953Z,28.80
2022-08-02T08:22:55.058Z,29.53
2022-08-02T08:25:22.991Z,29.67
2022-08-02T08:27:55.082Z,29.76
2022-08-02T08:30:23.207Z,29.83
2022-08-02T08:32:51.126Z,29.92
2022-08-02T08:35:19.289Z,30.02
2022-08-02T08:37:49.629Z,30.12
2022-08-02T08:40:19.751Z,30.22
2022-08-02T08:42:48.098Z,30.31
2022-08-02T08:45:18.124Z,30.37
2022-08-02T08:47:53.385Z,30.40
2022-08-02T08:50:26.121Z,30.42
2022-08-02T08:53:02.913Z,30.46
2022-08-02T08:55:32.108Z,30.52
2022-08-02T08:58:01.480Z,30.54
2022-08-02T09:00:35.926Z,30.58
2022-08-02T09:03:08.677Z,30.62
2022-08-02T09:05:40.093Z,30.69
2022-08-02T09:08:11.277Z,30.72
2022-08-02T09:10:45.073Z,30.72
2022-08-02T09:13:44.942Z,30.67
2022-08-02T09:16:14.827Z,30.58
2022-08-02T09:18:46.917Z,30.54
2022-08-02T09:21:22.139Z,30.56
2022-08-02T09:23:57.600Z,30.58
2022-08-02T09:26:26.948Z,30.64
2022-08-02T09:29:02.147Z,30.76
2022-08-02T09:31:30.002Z,30.93
2022-08-02T09:33:59.867Z,31.09
2022-08-02T09:36:44.543Z,31.19
2022-08-02T09:39:15.824Z,31.28
2022-08-02T09:41:45.605Z,31.30
2022-08-02T09:44:16.263Z,31.27
2022-08-02T09:46:47.638Z,31.30
2022-08-02T09:49:18.549Z,31.37
2022-08-02T09:51:49.249Z,31.44
2022-08-02T09:54:36.537Z,31.54
2022-08-02T09:57:04.576Z,31.62
2022-08-02T09:59:32.815Z,31.59
2022-08-02T10:02:17.129Z,31.53
2022-08-02T10:04:53.303Z,31.44
2022-08-02T10:07:23.369Z,31.37
2022-08-02T10:09:52.411Z,31.38
2022-08-02T10:12:23.155Z,31.44
2022-08-02T10:14:52.177Z,31.52
2022-08-02T10:17:21.291Z,31.62
2022-08-02T10:20:01.978Z,31.69
2022-08-02T10:22:35.009Z,31.75
2022-08-02T10:25:05.314Z,31.79
2022-08-02T10:28:02.398Z,31.82
2022-08-02T10:30:24.732Z,31.86
2022-08-02T10:32:54.316Z,31.89
2022-08-02T10:35:25.621Z,31.93
2022-08-02T10:38:03.932Z,32.02
2022-08-02T10:40:44.474Z,32.10
2022-08-02T10:43:14.278Z,32.17
2022-08-02T10:45:42.234Z,32.24
2022-08-02T10:48:15.274Z,32.32
2022-08-02T10:50:49.416Z,32.41
2022-08-02T10:53:29.499Z,32.49
2022-08-02T10:56:03.815Z,32.52
2022-08-02T10:58:35.047Z,32.36
2022-08-02T11:01:26.845Z,32.13
2022-08-02T11:04:10.588Z,31.87
2022-08-02T11:07:17.682Z,31.70
2022-08-02T11:09:48.338Z,31.48
2022-08-02T11:12:21.539Z,31.28
2022-08-02T11:15:07.766Z,31.02
2022-08-02T11:17:56.869Z,30.83
2022-08-02T11:20:27.395Z,30.83
2022-08-02T11:23:44.046Z,30.85
2022-08-02T11:26:32.105Z,30.92
2022-08-02T11:29:03.564Z,30.99
2022-08-02T11:31:40.862Z,31.02
2022-08-02T11:34:10.122Z,30.97
2022-08-02T11:36:50.700Z,30.82
2022-08-02T11:39:21.727Z,30.67
2022-08-02T11:41:58.891Z,30.56
2022-08-02T11:44:28.989Z,30.40
2022-08-02T11:47:03.357Z,30.26
2022-08-02T11:49:31.594Z,30.08
2022-08-02T11:52:06.437Z,29.88
2022-08-02T11:54:40.617Z,29.64
2022-08-02T11:57:21.453Z,29.43
2022-08-02T11:59:53.469Z,29.28
2022-08-02T12:02:31.679Z,29.30
2022-08-02T12:05:03.146Z,29.43
2022-08-02T12:07:46.093Z,29.62
2022-08-02T12:10:24.494Z,29.80
2022-08-02T12:12:58.351Z,29.97
2022-08-02T12:15:45.400Z,30.13
2022-08-02T12:18:38.048Z,30.32
2022-08-02T12:21:23.661Z,30.56
2022-08-02T12:23:59.347Z,30.76
2022-08-02T12:26:30.787Z,30.84
2022-08-02T12:28:59.896Z,30.91
2022-08-02T12:31:56.017Z,30.90
2022-08-02T12:34:31.493Z,30.87
2022-08-02T12:37:08.077Z,30.92
2022-08-02T12:39:46.431Z,31.03
2022-08-02T12:42:16.287Z,31.16
2022-08-02T12:44:59.282Z,31.25
2022-08-02T12:47:35.642Z,31.34
2022-08-02T12:50:37.278Z,31.43
2022-08-02T12:53:08.148Z,31.50
2022-08-02T12:56:02.085Z,31.47
2022-08-02T12:58:31.205Z,31.50
2022-08-02T13:01:01.474Z,31.57
2022-08-02T13:04:07.702Z,31.64
2022-08-02T13:09:17.241Z,31.77
2022-08-02T13:11:45.718Z,31.80
2022-08-02T13:14:14.323Z,31.83
2022-08-02T13:16:46.091Z,31.85
2022-08-02T13:19:15.779Z,31.86
2022-08-02T13:22:01.906Z,31.84
2022-08-02T13:24:40.780Z,31.80
2022-08-02T13:27:21.611Z,31.73
2022-08-02T13:29:51.673Z,31.68
2022-08-02T13:32:20.786Z,31.64
2022-08-02T13:34:49.079Z,31.58
2022-08-02T13:37:18.633Z,31.50
2022-08-02T13:40:05.499Z,31.44
2022-08-02T13:42:34.534Z,31.38
2022-08-02T13:45:12.969Z,31.31
2022-08-02T13:48:04.527Z,31.23
2022-08-02T13:50:33.175Z,31.13
2022-08-02T13:53:01.199Z,31.04
2022-08-02T13:55:29.248Z,30.95
2022-08-02T13:57:57.820Z,30.84
2022-08-02T14:00:35.555Z,30.73
2022-08-02T14:03:07.110Z,30.59
2022-08-02T14:05:48.166Z,30.45
2022-08-02T14:08:18.660Z,30.29
2022-08-02T14:10:47.894Z,30.13
2022-08-02T14:13:16.869Z,29.99
2022-08-02T14:15:47.751Z,29.87
2022-08-02T14:18:15.741Z,29.78
2022-08-02T14:20:45.278Z,29.71
2022-08-02T14:23:13.314Z,29.63
2022-08-02T14:25:41.369Z,29.55
2022-08-02T14:28:09.464Z,29.47
2022-08-02T14:30:37.549Z,29.37
2022-08-02T14:33:05.539Z,29.28
2022-08-02T14:35:33.585Z,29.19
2022-08-02T14:38:01.493Z,29.09
2022-08-02T14:40:31.766Z,28.99
2022-08-02T14:43:02.934Z,28.89
2022-08-02T14:45:39.764Z,28.79
2022-08-02T14:48:11.405Z,28.71
2022-08-02T14:50:39.267Z,28.67
2022-08-02T14:53:12.454Z,28.62
2022-08-02T14:55:45.190Z,28.57
2022-08-02T14:58:12.970Z,28.53
2022-08-02T15:00:41.763Z,28.51
2022-08-02T15:03:11.977Z,28.51
2022-08-02T15:05:40.491Z,28.51
2022-08-02T15:08:08.371Z,28.52
2022-08-02T15:10:36.327Z,28.54
2022-08-02T15:13:04.508Z,28.52
2022-08-02T15:15:32.457Z,28.52
2022-08-02T15:18:14.220Z,28.50
2022-08-02T15:20:47.786Z,28.47
2022-08-02T15:23:37.637Z,28.48
2022-08-02T15:26:06.997Z,28.48
2022-08-02T15:28:35.092Z,28.48
2022-08-02T15:31:02.995Z,28.49
2022-08-02T15:33:33.207Z,28.51
2022-08-02T15:36:00.973Z,28.53
2022-08-02T15:38:28.863Z,28.55
2022-08-02T15:40:56.799Z,28.57
2022-08-02T15:43:24.819Z,28.59
2022-08-02T15:45:52.744Z,28.59
2022-08-02T15:48:20.601Z,28.60
2022-08-02T15:50:48.500Z,28.61
2022-08-02T15:53:16.381Z,28.61
2022-08-02T15:55:53.191Z,28.63
2022-08-02T15:58:31.941Z,28.62
2022-08-02T16:01:00.082Z,28.63
2022-08-02T16:03:28.378Z,28.63
2022-08-02T16:05:56.283Z,28.61
2022-08-02T16:08:24.108Z,28.59
2022-08-02T16:10:51.925Z,28.57
2022-08-02T16:13:49.935Z,28.56
2022-08-02T16:16:34.058Z,28.54
2022-08-02T16:19:46.317Z,28.51
2022-08-02T16:21:53.797Z,28.48
2022-08-02T16:24:22.263Z,28.45
2022-08-02T16:26:53.061Z,28.42
2022-08-02T16:29:20.902Z,28.39
2022-08-02T16:31:48.772Z,28.36
2022-08-02T16:34:21.061Z,28.33
2022-08-02T16:36:50.282Z,28.28
2022-08-02T16:39:18.133Z,28.24
2022-08-02T16:41:51.455Z,28.21
2022-08-02T16:44:29.538Z,28.16
2022-08-02T16:47:00.831Z,28.13
2022-08-02T16:50:07.223Z,28.07
2022-08-02T16:52:19.507Z,28.02
2022-08-02T16:54:49.952Z,27.97
2022-08-02T16:57:19.541Z,27.92
2022-08-02T16:59:58.219Z,27.87
2022-08-02T17:02:27.857Z,27.82
2022-08-02T17:04:56.785Z,27.78
2022-08-02T17:08:07.083Z,27.73
2022-08-02T17:10:12.779Z,27.68
2022-08-02T17:12:40.920Z,27.62
2022-08-02T17:16:01.403Z,27.57
2022-08-02T17:17:58.592Z,27.52
2022-08-02T17:20:26.374Z,27.47
2022-08-02T17:22:54.404Z,27.42
2022-08-02T17:25:24.793Z,27.37
2022-08-02T17:27:55.646Z,27.31
2022-08-02T17:30:31.491Z,27.26
2022-08-02T17:32:59.506Z,27.21
2022-08-02T17:35:43.173Z,27.15
2022-08-02T17:38:26.654Z,27.09
2022-08-02T17:40:56.383Z,27.02
2022-08-02T17:43:29.177Z,26.96
2022-08-02T17:46:02.552Z,26.89
2022-08-02T17:52:47.672Z,26.75
2022-08-02T17:54:45.529Z,26.67
2022-08-02T17:57:14.612Z,26.62
2022-08-02T18:00:03.915Z,26.56
2022-08-02T18:02:36.749Z,26.48
2022-08-02T18:05:06.255Z,26.40
2022-08-02T18:07:50.215Z,26.32
2022-08-02T18:10:29.158Z,26.22
2022-08-02T18:13:03.784Z,26.15
2022-08-02T18:15:35.080Z,26.07
2022-08-02T18:18:05.612Z,25.99
2022-08-02T18:20:40.922Z,25.93
2022-08-02T18:23:13.504Z,25.84
2022-08-02T18:25:46.069Z,25.76
2022-08-02T18:28:19.632Z,25.68
2022-08-02T18:30:55.407Z,25.59
2022-08-02T18:33:56.985Z,25.50
2022-08-02T18:36:24.457Z,25.41
2022-08-02T18:38:53.757Z,25.32
2022-08-02T18:41:22.344Z,25.23
2022-08-02T18:43:52.689Z,25.14
2022-08-02T18:46:20.485Z,25.05
2022-08-02T18:48:48.375Z,24.97
2022-08-02T18:51:19.433Z,24.88
2022-08-02T18:53:52.421Z,24.79
2022-08-02T18:56:24.790Z,24.70
2022-08-02T18:58:55.252Z,24.61
2022-08-02T19:01:31.930Z,24.53
2022-08-02T19:04:08.608Z,24.44
2022-08-02T19:06:37.195Z,24.37
2022-08-02T19:09:13.209Z,24.29
2022-08-02T19:11:47.240Z,24.21
2022-08-02T19:14:24.178Z,24.14
2022-08-02T19:17:53.586Z,24.06
2022-08-02T19:19:48.523Z,23.98
2022-08-02T19:22:20.398Z,23.91
2022-08-02T19:24:51.986Z,23.83
2022-08-02T19:27:25.908Z,23.76
2022-08-02T19:30:07.514Z,23.67
2022-08-02T19:32:39.846Z,23.59
2022-08-02T19:35:19.405Z,23.52
2022-08-02T19:38:09.370Z,23.45
2022-08-02T19:40:42.346Z,23.37
2022-08-02T19:44:26.076Z,23.30
2022-08-02T19:46:00.525Z,23.22
2022-08-02T19:48:29.189Z,23.14
2022-08-02T19:51:00.662Z,23.07
2022-08-02T19:56:25.480Z,22.93
2022-08-02T19:58:59.732Z,22.86
2022-08-02T20:01:39.458Z,22.80
2022-08-02T20:04:12.887Z,22.73
2022-08-02T20:06:47.596Z,22.66
2022-08-02T20:09:21.554Z,22.59
2022-08-02T20:11:54.353Z,22.52
2022-08-02T20:14:27.017Z,22.46
2022-08-02T20:17:00.077Z,22.37
2022-08-02T20:19:29.132Z,22.29
2022-08-02T20:22:00.542Z,22.21
2022-08-02T20:24:30.362Z,22.12
2022-08-02T20:26:59.749Z,22.04
2022-08-02T20:29:42.912Z,21.94
2022-08-02T20:32:14.977Z,22.08
2022-08-02T20:34:43.082Z,22.54
2022-08-02T20:38:00.381Z,22.78
2022-08-02T20:40:09.411Z,22.69
2022-08-02T20:42:37.626Z,22.62
2022-08-02T20:45:13.053Z,22.56
2022-08-02T20:47:52.396Z,22.51
2022-08-02T20:50:41.456Z,22.46
2022-08-02T20:53:23.909Z,22.35
2022-08-02T20:55:55.419Z,22.29
2022-08-02T20:58:28.012Z,22.20
2022-08-02T21:00:59.882Z,22.10
2022-08-02T21:03:38.823Z,22.05
2022-08-02T21:06:15.155Z,22.00
2022-08-02T21:08:46.086Z,21.95
2022-08-02T21:11:14.492Z,21.92
2022-08-02T21:13:46.424Z,21.88
2022-08-02T21:16:18.433Z,21.84
2022-08-02T21:18:51.505Z,21.81
2022-08-02T21:21:19.484Z,21.79
2022-08-02T21:23:54.405Z,21.77
2022-08-02T21:26:27.822Z,21.69
2022-08-02T21:29:00.794Z,21.66
2022-08-02T21:31:36.161Z,21.63
2022-08-02T21:34:21.740Z,21.55
2022-08-02T21:36:50.708Z,21.52
2022-08-02T21:39:21.107Z,21.51
2022-08-02T21:41:49.677Z,21.49
2022-08-02T21:44:20.107Z,21.47
2022-08-02T21:46:53.816Z,21.45
2022-08-02T21:49:40.534Z,21.43
2022-08-02T21:52:09.179Z,21.32
2022-08-02T21:54:40.387Z,21.25
2022-08-02T21:57:15.608Z,21.29
2022-08-02T21:59:46.397Z,21.75
2022-08-02T22:02:16.726Z,22.42
2022-08-02T22:04:47.882Z,23.03
2022-08-02T22:07:23.652Z,23.89
2022-08-02T22:09:53.375Z,24.31
2022-08-02T22:12:25.828Z,23.72
2022-08-02T22:14:55.662Z,23.14
2022-08-02T22:17:50.569Z,22.74
2022-08-02T22:20:20.245Z,22.40
2022-08-02T22:22:51.179Z,22.16
2022-08-02T22:25:27.122Z,21.97
2022-08-02T22:28:37.983Z,21.78
2022-08-02T22:30:57.458Z,21.60
2022-08-02T22:33:47.181Z,21.71
2022-08-02T22:36:30.104Z,22.77
2022-08-02T22:38:58.657Z,23.41
2022-08-02T22:47:11.699Z,23.51
2022-08-02T22:49:53.061Z,22.97
2022-08-02T22:52:23.976Z,22.59
2022-08-02T22:54:52.010Z,22.31
2022-08-02T22:57:30.879Z,22.08
2022-08-02T22:59:06.148Z,23.00
2022-08-02T22:59:09.693Z,23.98
2022-08-02T22:59:09.786Z,24.19
2022-08-02T23:00:00.524Z,21.86
2022-08-02T23:02:28.418Z,21.68
2022-08-02T23:04:58.352Z,21.74
2022-08-02T23:07:26.752Z,22.48
2022-08-02T23:09:55.829Z,23.17
2022-08-02T23:12:24.288Z,23.97
2022-08-02T23:14:52.952Z,24.27
2022-08-02T23:17:39.292Z,23.65
2022-08-02T23:20:15.725Z,23.01
2022-08-02T23:22:43.668Z,22.58
2022-08-02T23:25:12.823Z,22.26
2022-08-02T23:27:49.875Z,22.01
2022-08-02T23:30:19.957Z,21.78
2022-08-02T23:32:48.214Z,21.80
2022-08-02T23:35:17.020Z,22.75
2022-08-02T23:38:00.173Z,23.75
2022-08-02T23:40:40.632Z,23.96
2022-08-02T23:43:14.395Z,23.29
2022-08-02T23:45:45.660Z,22.72
2022-08-02T23:48:14.155Z,22.32
2022-08-02T23:50:42.435Z,22.03
2022-08-02T23:53:10.300Z,22.10
2022-08-02T23:55:38.191Z,23.04
2022-08-02T23:58:05.991Z,23.93
